createdAt,value
2019-03-20T18:29:13.840Z,3.22
2019-03-20T18:31:46.184Z,3.33
2019-03-20T18:34:16.121Z,2.65
2019-03-20T18:36:46.342Z,4.22
2019-03-20T18:39:16.533Z,3.70
2019-03-20T18:41:46.748Z,4.08
2019-03-20T18:44:16.944Z,3.40
2019-03-20T18:46:47.147Z,3.35
2019-03-20T18:49:17.511Z,4.53
2019-03-20T18:51:47.744Z,4.55
2019-03-20T18:54:17.949Z,4.33
2019-03-20T18:56:47.651Z,3.55
2019-03-20T18:59:17.947Z,3.92
2019-03-20T19:01:48.273Z,5.28
2019-03-20T19:04:18.321Z,4.10
2019-03-20T19:06:48.951Z,3.95
2019-03-20T19:09:19.147Z,3.05
2019-03-20T19:11:49.511Z,3.92
2019-03-20T19:14:19.711Z,3.52
2019-03-20T19:16:50.107Z,4.60
2019-03-20T19:19:20.315Z,3.52
2019-03-20T19:21:49.968Z,2.47
2019-03-20T19:24:20.167Z,3.37
2019-03-20T19:26:50.454Z,3.40
2019-03-20T19:29:21.070Z,3.77
2019-03-20T19:31:51.275Z,3.60
2019-03-20T19:34:21.567Z,2.35
2019-03-20T19:36:51.864Z,2.62
2019-03-20T19:39:22.073Z,2.67
2019-03-20T19:41:52.291Z,2.27
2019-03-20T19:44:21.952Z,2.22
2019-03-20T19:46:52.162Z,3.77
2019-03-20T19:49:22.392Z,2.72
2019-03-20T19:51:52.612Z,2.60
2019-03-20T19:54:22.840Z,2.27
2019-03-20T19:56:53.067Z,2.47
2019-03-20T19:59:23.271Z,3.25
2019-03-20T20:01:53.480Z,3.08
2019-03-20T20:04:23.695Z,5.10
2019-03-20T20:06:54.180Z,4.22
2019-03-20T20:09:24.516Z,7.03
2019-03-20T20:11:54.887Z,4.92
2019-03-20T20:14:25.116Z,5.20
2019-03-20T20:16:55.332Z,10.60
2019-03-20T20:19:25.576Z,46.83
2019-03-20T20:21:55.810Z,57.78
2019-03-20T20:24:26.055Z,37.15
2019-03-20T20:26:56.380Z,30.40
2019-03-20T20:29:26.633Z,31.68
2019-03-20T20:31:56.871Z,33.30
2019-03-20T20:34:27.128Z,38.42
2019-03-20T20:36:57.443Z,30.27
2019-03-20T20:39:27.819Z,33.02
2019-03-20T20:41:58.059Z,30.88
2019-03-20T20:44:28.070Z,34.15
2019-03-20T20:46:58.121Z,28.92
2019-03-20T20:49:28.369Z,27.35
2019-03-20T20:51:58.895Z,28.57
2019-03-20T20:54:29.140Z,23.85
2019-03-20T20:56:59.776Z,33.73
2019-03-20T20:59:30.020Z,21.12
2019-03-20T21:02:00.262Z,24.75
2019-03-20T21:04:31.688Z,23.32
2019-03-20T21:07:03.103Z,23.05
2019-03-20T21:09:33.407Z,21.75
2019-03-20T21:12:03.697Z,22.22
2019-03-20T21:14:33.933Z,24.77
2019-03-20T21:17:05.917Z,21.75
2019-03-20T21:19:36.231Z,22.93
2019-03-20T21:22:32.512Z,21.07
2019-03-20T21:25:02.819Z,20.35
2019-03-20T21:28:09.771Z,21.17
2019-03-20T21:30:49.240Z,19.20
2019-03-20T21:33:26.752Z,18.50
2019-03-20T21:36:29.012Z,18.77
2019-03-20T21:38:59.265Z,18.90
2019-03-20T21:41:32.771Z,19.50
2019-03-20T21:44:26.003Z,19.82
2019-03-20T21:47:17.164Z,17.87
2019-03-20T21:49:47.541Z,16.57
2019-03-20T21:52:17.771Z,18.02
2019-03-20T21:55:18.624Z,14.53
2019-03-20T21:58:07.219Z,14.93
2019-03-20T22:01:14.014Z,14.60
2019-03-20T22:03:44.288Z,12.05
2019-03-20T22:06:21.637Z,14.03
